sensor_id;sensor_type;location;lat;lon;timestamp;temperature;humidity
28374;DHT22;15616;40.148;-102.718;2022-07-23T00:02:08;25.20;49.80
28374;DHT22;15616;40.148;-102.718;2022-07-23T00:04:34;25.30;49.80
28374;DHT22;15616;40.148;-102.718;2022-07-23T00:07:00;25.20;49.80
28374;DHT22;15616;40.148;-102.718;2022-07-23T00:09:26;25.30;49.80
28374;DHT22;15616;40.148;-102.718;2022-07-23T00:11:54;25.30;49.80
28374;DHT22;15616;40.148;-102.718;2022-07-23T00:14:20;25.20;49.80
28374;DHT22;15616;40.148;-102.718;2022-07-23T00:16:45;25.30;49.80
28374;DHT22;15616;40.148;-102.718;2022-07-23T00:19:11;25.30;49.90
28374;DHT22;15616;40.148;-102.718;2022-07-23T00:21:37;25.20;49.80
28374;DHT22;15616;40.148;-102.718;2022-07-23T00:24:04;25.20;49.80
28374;DHT22;15616;40.148;-102.718;2022-07-23T00:26:30;25.20;49.80
28374;DHT22;15616;40.148;-102.718;2022-07-23T00:28:55;25.20;49.80
28374;DHT22;15616;40.148;-102.718;2022-07-23T00:31:21;25.20;49.80
28374;DHT22;15616;40.148;-102.718;2022-07-23T00:33:47;25.20;49.90
28374;DHT22;15616;40.148;-102.718;2022-07-23T00:36:13;25.20;49.90
28374;DHT22;15616;40.148;-102.718;2022-07-23T00:38:39;25.20;49.90
28374;DHT22;15616;40.148;-102.718;2022-07-23T00:41:05;25.20;49.90
28374;DHT22;15616;40.148;-102.718;2022-07-23T00:43:31;25.20;49.90
28374;DHT22;15616;40.148;-102.718;2022-07-23T00:45:57;25.20;49.90
28374;DHT22;15616;40.148;-102.718;2022-07-23T00:48:23;25.20;49.90
28374;DHT22;15616;40.148;-102.718;2022-07-23T00:50:49;25.20;50.00
28374;DHT22;15616;40.148;-102.718;2022-07-23T00:53:15;25.20;49.90
28374;DHT22;15616;40.148;-102.718;2022-07-23T00:55:41;25.20;49.90
28374;DHT22;15616;40.148;-102.718;2022-07-23T00:58:08;25.20;49.90
28374;DHT22;15616;40.148;-102.718;2022-07-23T01:00:35;25.20;50.00
28374;DHT22;15616;40.148;-102.718;2022-07-23T01:03:01;25.20;49.90
28374;DHT22;15616;40.148;-102.718;2022-07-23T01:05:27;25.20;49.90
28374;DHT22;15616;40.148;-102.718;2022-07-23T01:07:52;25.20;50.00
28374;DHT22;15616;40.148;-102.718;2022-07-23T01:10:18;25.20;50.00
28374;DHT22;15616;40.148;-102.718;2022-07-23T01:13:09;25.20;50.00
28374;DHT22;15616;40.148;-102.718;2022-07-23T01:15:36;25.20;50.00
28374;DHT22;15616;40.148;-102.718;2022-07-23T01:18:04;25.10;50.00
28374;DHT22;15616;40.148;-102.718;2022-07-23T01:20:31;25.10;50.00
28374;DHT22;15616;40.148;-102.718;2022-07-23T01:22:58;25.10;50.00
28374;DHT22;15616;40.148;-102.718;2022-07-23T01:25:24;25.10;50.00
28374;DHT22;15616;40.148;-102.718;2022-07-23T01:27:54;25.10;50.00
28374;DHT22;15616;40.148;-102.718;2022-07-23T01:30:20;25.10;50.00
28374;DHT22;15616;40.148;-102.718;2022-07-23T01:32:46;25.10;50.10
28374;DHT22;15616;40.148;-102.718;2022-07-23T01:35:12;25.10;50.10
28374;DHT22;15616;40.148;-102.718;2022-07-23T01:37:38;25.10;50.10
28374;DHT22;15616;40.148;-102.718;2022-07-23T01:40:05;25.10;50.10
28374;DHT22;15616;40.148;-102.718;2022-07-23T01:42:31;25.10;50.00
28374;DHT22;15616;40.148;-102.718;2022-07-23T01:44:57;25.10;50.00
28374;DHT22;15616;40.148;-102.718;2022-07-23T01:47:23;25.10;50.00
28374;DHT22;15616;40.148;-102.718;2022-07-23T01:49:49;25.10;50.00
28374;DHT22;15616;40.148;-102.718;2022-07-23T01:52:15;25.10;50.00
28374;DHT22;15616;40.148;-102.718;2022-07-23T01:54:42;25.10;50.00
28374;DHT22;15616;40.148;-102.718;2022-07-23T01:57:08;25.10;50.00
28374;DHT22;15616;40.148;-102.718;2022-07-23T01:59:34;25.10;50.10
28374;DHT22;15616;40.148;-102.718;2022-07-23T02:02:00;25.10;50.10
28374;DHT22;15616;40.148;-102.718;2022-07-23T02:04:26;25.10;50.10
28374;DHT22;15616;40.148;-102.718;2022-07-23T02:06:53;25.10;50.00
28374;DHT22;15616;40.148;-102.718;2022-07-23T02:09:19;25.10;50.00
28374;DHT22;15616;40.148;-102.718;2022-07-23T02:11:45;25.10;50.00
28374;DHT22;15616;40.148;-102.718;2022-07-23T02:14:11;25.10;50.00
28374;DHT22;15616;40.148;-102.718;2022-07-23T02:16:37;25.10;50.00
28374;DHT22;15616;40.148;-102.718;2022-07-23T02:19:04;25.10;50.10
28374;DHT22;15616;40.148;-102.718;2022-07-23T02:21:29;25.10;50.10
28374;DHT22;15616;40.148;-102.718;2022-07-23T02:23:55;25.10;50.00
28374;DHT22;15616;40.148;-102.718;2022-07-23T02:26:21;25.10;50.10
28374;DHT22;15616;40.148;-102.718;2022-07-23T02:28:47;25.10;50.10
28374;DHT22;15616;40.148;-102.718;2022-07-23T02:31:13;25.00;50.10
28374;DHT22;15616;40.148;-102.718;2022-07-23T02:33:39;25.10;50.10
28374;DHT22;15616;40.148;-102.718;2022-07-23T02:36:05;25.00;50.10
28374;DHT22;15616;40.148;-102.718;2022-07-23T02:38:31;25.00;50.10
28374;DHT22;15616;40.148;-102.718;2022-07-23T02:40:57;25.10;50.20
28374;DHT22;15616;40.148;-102.718;2022-07-23T02:43:23;25.00;50.10
28374;DHT22;15616;40.148;-102.718;2022-07-23T02:45:49;25.00;50.20
28374;DHT22;15616;40.148;-102.718;2022-07-23T02:48:15;25.00;50.20
28374;DHT22;15616;40.148;-102.718;2022-07-23T02:50:40;25.00;50.20
28374;DHT22;15616;40.148;-102.718;2022-07-23T02:53:06;25.00;50.20
28374;DHT22;15616;40.148;-102.718;2022-07-23T02:55:32;25.00;50.20
28374;DHT22;15616;40.148;-102.718;2022-07-23T02:57:58;25.00;50.20
28374;DHT22;15616;40.148;-102.718;2022-07-23T03:00:24;25.00;50.20
28374;DHT22;15616;40.148;-102.718;2022-07-23T03:02:50;25.00;50.20
28374;DHT22;15616;40.148;-102.718;2022-07-23T03:05:16;25.00;50.20
28374;DHT22;15616;40.148;-102.718;2022-07-23T03:07:42;24.90;50.20
28374;DHT22;15616;40.148;-102.718;2022-07-23T03:10:08;24.90;50.30
28374;DHT22;15616;40.148;-102.718;2022-07-23T03:12:34;25.00;50.30
28374;DHT22;15616;40.148;-102.718;2022-07-23T03:15:00;24.90;50.30
28374;DHT22;15616;40.148;-102.718;2022-07-23T03:17:25;25.00;50.30
28374;DHT22;15616;40.148;-102.718;2022-07-23T03:19:51;25.00;50.40
28374;DHT22;15616;40.148;-102.718;2022-07-23T03:22:17;24.90;50.30
28374;DHT22;15616;40.148;-102.718;2022-07-23T03:24:43;24.90;50.30
28374;DHT22;15616;40.148;-102.718;2022-07-23T03:27:26;25.00;50.30
28374;DHT22;15616;40.148;-102.718;2022-07-23T03:29:54;25.00;50.30
28374;DHT22;15616;40.148;-102.718;2022-07-23T03:32:21;24.90;50.30
28374;DHT22;15616;40.148;-102.718;2022-07-23T03:34:47;24.90;50.20
28374;DHT22;15616;40.148;-102.718;2022-07-23T03:37:14;25.00;50.30
28374;DHT22;15616;40.148;-102.718;2022-07-23T03:39:40;25.00;50.30
28374;DHT22;15616;40.148;-102.718;2022-07-23T03:42:08;25.00;50.20
28374;DHT22;15616;40.148;-102.718;2022-07-23T03:44:34;25.00;50.30
28374;DHT22;15616;40.148;-102.718;2022-07-23T03:47:03;25.00;50.20
28374;DHT22;15616;40.148;-102.718;2022-07-23T03:49:29;24.90;50.20
28374;DHT22;15616;40.148;-102.718;2022-07-23T03:51:54;25.00;50.30
28374;DHT22;15616;40.148;-102.718;2022-07-23T03:54:20;25.00;50.20
28374;DHT22;15616;40.148;-102.718;2022-07-23T03:56:46;25.00;50.30
28374;DHT22;15616;40.148;-102.718;2022-07-23T03:59:12;25.00;50.20
28374;DHT22;15616;40.148;-102.718;2022-07-23T04:01:38;25.00;50.30
28374;DHT22;15616;40.148;-102.718;2022-07-23T04:04:04;25.00;50.30
28374;DHT22;15616;40.148;-102.718;2022-07-23T04:06:30;25.00;50.30
28374;DHT22;15616;40.148;-102.718;2022-07-23T04:08:56;24.90;50.30
28374;DHT22;15616;40.148;-102.718;2022-07-23T04:11:22;24.90;50.20
28374;DHT22;15616;40.148;-102.718;2022-07-23T04:13:48;25.00;50.20
28374;DHT22;15616;40.148;-102.718;2022-07-23T04:16:13;25.00;50.20
28374;DHT22;15616;40.148;-102.718;2022-07-23T04:18:39;25.00;50.20
28374;DHT22;15616;40.148;-102.718;2022-07-23T04:21:05;25.00;50.20
28374;DHT22;15616;40.148;-102.718;2022-07-23T04:23:31;25.00;50.20
28374;DHT22;15616;40.148;-102.718;2022-07-23T04:25:57;25.00;50.20
28374;DHT22;15616;40.148;-102.718;2022-07-23T04:28:23;25.00;50.30
28374;DHT22;15616;40.148;-102.718;2022-07-23T04:30:49;24.90;50.20
28374;DHT22;15616;40.148;-102.718;2022-07-23T04:33:15;25.00;50.20
28374;DHT22;15616;40.148;-102.718;2022-07-23T04:35:41;25.00;50.30
28374;DHT22;15616;40.148;-102.718;2022-07-23T04:38:07;25.00;50.20
28374;DHT22;15616;40.148;-102.718;2022-07-23T04:40:33;25.00;50.20
28374;DHT22;15616;40.148;-102.718;2022-07-23T04:42:58;25.00;50.20
28374;DHT22;15616;40.148;-102.718;2022-07-23T04:45:24;25.00;50.20
28374;DHT22;15616;40.148;-102.718;2022-07-23T04:47:50;25.10;50.10
28374;DHT22;15616;40.148;-102.718;2022-07-23T04:50:17;25.00;50.10
28374;DHT22;15616;40.148;-102.718;2022-07-23T04:52:47;25.10;50.10
28374;DHT22;15616;40.148;-102.718;2022-07-23T04:55:14;25.00;50.10
28374;DHT22;15616;40.148;-102.718;2022-07-23T04:57:40;25.00;50.10
28374;DHT22;15616;40.148;-102.718;2022-07-23T05:00:07;25.00;50.10
28374;DHT22;15616;40.148;-102.718;2022-07-23T05:02:33;25.00;50.10
28374;DHT22;15616;40.148;-102.718;2022-07-23T05:04:59;25.00;50.20
28374;DHT22;15616;40.148;-102.718;2022-07-23T05:07:25;25.00;50.10
28374;DHT22;15616;40.148;-102.718;2022-07-23T05:09:51;25.00;50.20
28374;DHT22;15616;40.148;-102.718;2022-07-23T05:12:17;25.00;50.20
28374;DHT22;15616;40.148;-102.718;2022-07-23T05:14:43;25.00;50.20
28374;DHT22;15616;40.148;-102.718;2022-07-23T05:17:09;25.00;50.90
28374;DHT22;15616;40.148;-102.718;2022-07-23T05:19:35;25.00;50.20
28374;DHT22;15616;40.148;-102.718;2022-07-23T05:22:02;25.00;50.20
28374;DHT22;15616;40.148;-102.718;2022-07-23T05:24:28;25.00;50.20
28374;DHT22;15616;40.148;-102.718;2022-07-23T05:26:54;25.00;50.20
28374;DHT22;15616;40.148;-102.718;2022-07-23T05:29:20;25.00;50.20
28374;DHT22;15616;40.148;-102.718;2022-07-23T05:31:45;25.00;50.20
28374;DHT22;15616;40.148;-102.718;2022-07-23T05:34:11;25.00;50.20
28374;DHT22;15616;40.148;-102.718;2022-07-23T05:36:37;25.00;50.20
28374;DHT22;15616;40.148;-102.718;2022-07-23T05:39:03;25.00;50.20
28374;DHT22;15616;40.148;-102.718;2022-07-23T05:41:29;25.00;50.20
28374;DHT22;15616;40.148;-102.718;2022-07-23T05:43:55;25.00;50.20
28374;DHT22;15616;40.148;-102.718;2022-07-23T05:46:21;25.00;50.20
28374;DHT22;15616;40.148;-102.718;2022-07-23T05:48:47;25.00;50.20
28374;DHT22;15616;40.148;-102.718;2022-07-23T05:51:25;25.00;50.90
28374;DHT22;15616;40.148;-102.718;2022-07-23T05:53:51;25.00;50.20
28374;DHT22;15616;40.148;-102.718;2022-07-23T05:56:17;25.00;50.30
28374;DHT22;15616;40.148;-102.718;2022-07-23T05:58:44;25.00;50.30
28374;DHT22;15616;40.148;-102.718;2022-07-23T06:01:10;25.00;50.30
28374;DHT22;15616;40.148;-102.718;2022-07-23T06:03:38;25.00;50.30
28374;DHT22;15616;40.148;-102.718;2022-07-23T06:06:05;25.00;50.30
28374;DHT22;15616;40.148;-102.718;2022-07-23T06:08:31;25.00;50.30
28374;DHT22;15616;40.148;-102.718;2022-07-23T06:10:57;25.00;50.30
28374;DHT22;15616;40.148;-102.718;2022-07-23T06:13:23;25.00;50.30
28374;DHT22;15616;40.148;-102.718;2022-07-23T06:15:52;25.00;50.30
28374;DHT22;15616;40.148;-102.718;2022-07-23T06:18:18;25.00;50.30
28374;DHT22;15616;40.148;-102.718;2022-07-23T06:20:44;25.00;50.30
28374;DHT22;15616;40.148;-102.718;2022-07-23T06:23:10;25.00;50.30
28374;DHT22;15616;40.148;-102.718;2022-07-23T06:25:38;25.00;50.30
28374;DHT22;15616;40.148;-102.718;2022-07-23T06:28:04;25.00;50.40
28374;DHT22;15616;40.148;-102.718;2022-07-23T06:30:30;25.00;50.40
28374;DHT22;15616;40.148;-102.718;2022-07-23T06:32:56;25.00;50.40
28374;DHT22;15616;40.148;-102.718;2022-07-23T06:35:22;25.00;50.30
28374;DHT22;15616;40.148;-102.718;2022-07-23T06:37:48;25.00;50.30
28374;DHT22;15616;40.148;-102.718;2022-07-23T06:40:14;25.00;50.30
28374;DHT22;15616;40.148;-102.718;2022-07-23T06:42:40;25.00;50.30
28374;DHT22;15616;40.148;-102.718;2022-07-23T06:45:07;25.00;50.30
28374;DHT22;15616;40.148;-102.718;2022-07-23T06:47:33;25.10;50.30
28374;DHT22;15616;40.148;-102.718;2022-07-23T06:49:59;25.10;50.30
28374;DHT22;15616;40.148;-102.718;2022-07-23T06:52:25;25.00;50.30
28374;DHT22;15616;40.148;-102.718;2022-07-23T06:54:54;25.00;50.30
28374;DHT22;15616;40.148;-102.718;2022-07-23T06:57:20;25.00;50.30
28374;DHT22;15616;40.148;-102.718;2022-07-23T06:59:46;25.00;50.30
28374;DHT22;15616;40.148;-102.718;2022-07-23T07:02:12;25.00;50.30
28374;DHT22;15616;40.148;-102.718;2022-07-23T07:04:38;25.00;50.30
28374;DHT22;15616;40.148;-102.718;2022-07-23T07:07:04;25.00;50.40
28374;DHT22;15616;40.148;-102.718;2022-07-23T07:09:30;25.10;50.40
28374;DHT22;15616;40.148;-102.718;2022-07-23T07:11:55;25.10;50.40
28374;DHT22;15616;40.148;-102.718;2022-07-23T07:14:22;25.10;50.40
28374;DHT22;15616;40.148;-102.718;2022-07-23T07:16:48;25.10;50.30
28374;DHT22;15616;40.148;-102.718;2022-07-23T07:19:14;25.10;50.30
28374;DHT22;15616;40.148;-102.718;2022-07-23T07:21:40;25.10;50.20
28374;DHT22;15616;40.148;-102.718;2022-07-23T07:24:06;25.10;50.30
28374;DHT22;15616;40.148;-102.718;2022-07-23T07:26:32;25.10;50.20
28374;DHT22;15616;40.148;-102.718;2022-07-23T07:28:58;25.10;50.20
28374;DHT22;15616;40.148;-102.718;2022-07-23T07:31:24;25.10;50.20
28374;DHT22;15616;40.148;-102.718;2022-07-23T07:33:50;25.10;50.20
28374;DHT22;15616;40.148;-102.718;2022-07-23T07:36:16;25.10;50.20
28374;DHT22;15616;40.148;-102.718;2022-07-23T07:38:42;25.10;50.10
28374;DHT22;15616;40.148;-102.718;2022-07-23T07:41:08;25.10;50.10
28374;DHT22;15616;40.148;-102.718;2022-07-23T07:43:36;25.10;50.00
28374;DHT22;15616;40.148;-102.718;2022-07-23T07:46:03;25.10;50.00
28374;DHT22;15616;40.148;-102.718;2022-07-23T07:48:29;25.20;50.10
28374;DHT22;15616;40.148;-102.718;2022-07-23T07:50:55;25.10;50.00
28374;DHT22;15616;40.148;-102.718;2022-07-23T07:53:21;25.10;50.00
28374;DHT22;15616;40.148;-102.718;2022-07-23T07:55:47;25.10;50.00
28374;DHT22;15616;40.148;-102.718;2022-07-23T07:58:12;25.20;50.10
28374;DHT22;15616;40.148;-102.718;2022-07-23T08:00:39;25.20;50.00
28374;DHT22;15616;40.148;-102.718;2022-07-23T08:03:04;25.20;49.90
28374;DHT22;15616;40.148;-102.718;2022-07-23T08:05:30;25.20;49.90
28374;DHT22;15616;40.148;-102.718;2022-07-23T08:07:57;25.20;50.00
28374;DHT22;15616;40.148;-102.718;2022-07-23T08:10:27;25.20;49.90
28374;DHT22;15616;40.148;-102.718;2022-07-23T08:12:57;25.20;49.80
28374;DHT22;15616;40.148;-102.718;2022-07-23T08:15:25;25.20;49.80
28374;DHT22;15616;40.148;-102.718;2022-07-23T08:17:51;25.30;49.80
28374;DHT22;15616;40.148;-102.718;2022-07-23T08:20:20;25.30;49.80
28374;DHT22;15616;40.148;-102.718;2022-07-23T08:23:02;25.30;49.70
28374;DHT22;15616;40.148;-102.718;2022-07-23T08:25:30;25.30;49.70
28374;DHT22;15616;40.148;-102.718;2022-07-23T08:27:58;25.30;49.70
28374;DHT22;15616;40.148;-102.718;2022-07-23T08:30:25;25.30;49.60
28374;DHT22;15616;40.148;-102.718;2022-07-23T08:33:02;25.30;49.60
28374;DHT22;15616;40.148;-102.718;2022-07-23T08:35:41;25.40;49.70
28374;DHT22;15616;40.148;-102.718;2022-07-23T08:38:09;25.40;49.70
28374;DHT22;15616;40.148;-102.718;2022-07-23T08:40:38;25.30;49.60
28374;DHT22;15616;40.148;-102.718;2022-07-23T08:43:07;25.30;49.50
28374;DHT22;15616;40.148;-102.718;2022-07-23T08:45:37;25.40;49.50
28374;DHT22;15616;40.148;-102.718;2022-07-23T08:48:07;25.40;49.50
28374;DHT22;15616;40.148;-102.718;2022-07-23T08:50:35;25.40;49.40
28374;DHT22;15616;40.148;-102.718;2022-07-23T08:53:07;25.40;49.40
28374;DHT22;15616;40.148;-102.718;2022-07-23T08:55:33;25.40;49.40
28374;DHT22;15616;40.148;-102.718;2022-07-23T08:57:59;25.40;49.40
28374;DHT22;15616;40.148;-102.718;2022-07-23T09:00:26;25.40;49.30
28374;DHT22;15616;40.148;-102.718;2022-07-23T09:02:52;25.40;49.30
28374;DHT22;15616;40.148;-102.718;2022-07-23T09:05:19;25.40;49.30
28374;DHT22;15616;40.148;-102.718;2022-07-23T09:08:17;25.40;49.30
28374;DHT22;15616;40.148;-102.718;2022-07-23T09:13:29;25.50;49.30
28374;DHT22;15616;40.148;-102.718;2022-07-23T09:15:58;25.40;49.30
28374;DHT22;15616;40.148;-102.718;2022-07-23T09:18:42;25.50;49.40
28374;DHT22;15616;40.148;-102.718;2022-07-23T09:21:13;25.50;49.30
28374;DHT22;15616;40.148;-102.718;2022-07-23T09:23:43;25.40;49.40
28374;DHT22;15616;40.148;-102.718;2022-07-23T09:31:41;25.50;49.30
28374;DHT22;15616;40.148;-102.718;2022-07-23T09:36:45;25.50;49.30
28374;DHT22;15616;40.148;-102.718;2022-07-23T09:39:12;25.50;49.30
28374;DHT22;15616;40.148;-102.718;2022-07-23T09:41:47;25.50;49.20
28374;DHT22;15616;40.148;-102.718;2022-07-23T09:44:19;25.60;49.20
28374;DHT22;15616;40.148;-102.718;2022-07-23T09:46:47;25.60;49.20
28374;DHT22;15616;40.148;-102.718;2022-07-23T09:49:19;25.60;49.20
28374;DHT22;15616;40.148;-102.718;2022-07-23T09:51:56;25.60;49.20
28374;DHT22;15616;40.148;-102.718;2022-07-23T09:54:36;25.60;49.20
28374;DHT22;15616;40.148;-102.718;2022-07-23T09:57:12;25.60;49.20
28374;DHT22;15616;40.148;-102.718;2022-07-23T09:59:44;25.60;49.20
28374;DHT22;15616;40.148;-102.718;2022-07-23T10:02:13;25.60;49.20
28374;DHT22;15616;40.148;-102.718;2022-07-23T10:04:40;25.60;49.10
28374;DHT22;15616;40.148;-102.718;2022-07-23T10:07:08;25.60;49.10
28374;DHT22;15616;40.148;-102.718;2022-07-23T10:09:40;25.60;49.10
28374;DHT22;15616;40.148;-102.718;2022-07-23T10:12:12;25.60;49.10
28374;DHT22;15616;40.148;-102.718;2022-07-23T10:14:52;25.60;49.10
28374;DHT22;15616;40.148;-102.718;2022-07-23T10:17:18;25.60;49.10
28374;DHT22;15616;40.148;-102.718;2022-07-23T10:19:45;25.60;49.10
28374;DHT22;15616;40.148;-102.718;2022-07-23T10:22:29;25.60;49.00
28374;DHT22;15616;40.148;-102.718;2022-07-23T10:33:32;25.70;49.10
28374;DHT22;15616;40.148;-102.718;2022-07-23T10:41:39;25.70;48.90
28374;DHT22;15616;40.148;-102.718;2022-07-23T10:44:09;25.70;48.90
28374;DHT22;15616;40.148;-102.718;2022-07-23T10:46:36;25.70;48.90
28374;DHT22;15616;40.148;-102.718;2022-07-23T10:49:29;25.70;49.00
28374;DHT22;15616;40.148;-102.718;2022-07-23T10:54:40;25.70;48.90
28374;DHT22;15616;40.148;-102.718;2022-07-23T10:57:11;25.70;49.00
28374;DHT22;15616;40.148;-102.718;2022-07-23T11:02:32;25.70;48.90
28374;DHT22;15616;40.148;-102.718;2022-07-23T11:05:13;25.70;48.90
28374;DHT22;15616;40.148;-102.718;2022-07-23T11:10:41;25.80;48.80
28374;DHT22;15616;40.148;-102.718;2022-07-23T11:32:00;25.80;48.70
28374;DHT22;15616;40.148;-102.718;2022-07-23T11:34:33;25.80;48.70
28374;DHT22;15616;40.148;-102.718;2022-07-23T11:37:01;25.90;48.80
28374;DHT22;15616;40.148;-102.718;2022-07-23T11:39:28;25.80;48.70
28374;DHT22;15616;40.148;-102.718;2022-07-23T11:41:56;25.90;48.70
28374;DHT22;15616;40.148;-102.718;2022-07-23T11:44:30;25.90;48.70
28374;DHT22;15616;40.148;-102.718;2022-07-23T11:46:59;25.90;48.70
28374;DHT22;15616;40.148;-102.718;2022-07-23T11:49:26;25.90;48.60
28374;DHT22;15616;40.148;-102.718;2022-07-23T11:52:12;25.90;48.50
28374;DHT22;15616;40.148;-102.718;2022-07-23T11:55:00;25.90;48.50
28374;DHT22;15616;40.148;-102.718;2022-07-23T11:57:28;25.90;48.50
28374;DHT22;15616;40.148;-102.718;2022-07-23T12:00:07;25.90;48.60
28374;DHT22;15616;40.148;-102.718;2022-07-23T12:02:34;25.90;48.50
28374;DHT22;15616;40.148;-102.718;2022-07-23T12:05:00;25.90;48.50
28374;DHT22;15616;40.148;-102.718;2022-07-23T12:07:32;25.90;48.50
28374;DHT22;15616;40.148;-102.718;2022-07-23T12:10:01;25.90;48.50
28374;DHT22;15616;40.148;-102.718;2022-07-23T12:12:27;25.90;48.50
28374;DHT22;15616;40.148;-102.718;2022-07-23T12:15:00;25.90;48.50
28374;DHT22;15616;40.148;-102.718;2022-07-23T12:17:31;25.90;48.40
28374;DHT22;15616;40.148;-102.718;2022-07-23T12:19:59;26.00;48.40
28374;DHT22;15616;40.148;-102.718;2022-07-23T12:22:38;26.00;48.40
28374;DHT22;15616;40.148;-102.718;2022-07-23T12:25:07;26.00;48.40
28374;DHT22;15616;40.148;-102.718;2022-07-23T12:27:34;25.90;48.40
28374;DHT22;15616;40.148;-102.718;2022-07-23T12:30:27;25.90;48.40
28374;DHT22;15616;40.148;-102.718;2022-07-23T12:32:55;26.00;48.30
28374;DHT22;15616;40.148;-102.718;2022-07-23T12:35:23;26.00;48.40
28374;DHT22;15616;40.148;-102.718;2022-07-23T12:38:00;26.00;48.30
28374;DHT22;15616;40.148;-102.718;2022-07-23T12:40:30;26.00;48.30
28374;DHT22;15616;40.148;-102.718;2022-07-23T12:43:05;26.00;48.30
28374;DHT22;15616;40.148;-102.718;2022-07-23T12:45:53;26.00;48.30
28374;DHT22;15616;40.148;-102.718;2022-07-23T12:48:23;26.10;48.30
28374;DHT22;15616;40.148;-102.718;2022-07-23T12:55:43;26.10;48.20
28374;DHT22;15616;40.148;-102.718;2022-07-23T12:58:16;26.10;48.20
28374;DHT22;15616;40.148;-102.718;2022-07-23T13:00:53;26.00;48.10
28374;DHT22;15616;40.148;-102.718;2022-07-23T13:03:35;26.10;48.10
28374;DHT22;15616;40.148;-102.718;2022-07-23T13:06:03;26.10;48.10
28374;DHT22;15616;40.148;-102.718;2022-07-23T13:08:31;26.10;48.20
28374;DHT22;15616;40.148;-102.718;2022-07-23T13:10:58;26.10;48.20
28374;DHT22;15616;40.148;-102.718;2022-07-23T13:13:26;26.10;48.10
28374;DHT22;15616;40.148;-102.718;2022-07-23T13:15:53;26.10;48.10
28374;DHT22;15616;40.148;-102.718;2022-07-23T13:18:19;26.10;48.10
28374;DHT22;15616;40.148;-102.718;2022-07-23T13:20:47;26.10;48.10
28374;DHT22;15616;40.148;-102.718;2022-07-23T13:23:13;26.10;48.10
28374;DHT22;15616;40.148;-102.718;2022-07-23T13:25:40;26.10;48.00
28374;DHT22;15616;40.148;-102.718;2022-07-23T13:28:06;26.10;48.00
28374;DHT22;15616;40.148;-102.718;2022-07-23T13:30:32;26.20;48.10
28374;DHT22;15616;40.148;-102.718;2022-07-23T13:33:00;26.10;48.00
28374;DHT22;15616;40.148;-102.718;2022-07-23T13:35:26;26.20;48.10
28374;DHT22;15616;40.148;-102.718;2022-07-23T13:37:52;26.10;48.00
28374;DHT22;15616;40.148;-102.718;2022-07-23T13:40:18;26.20;48.10
28374;DHT22;15616;40.148;-102.718;2022-07-23T13:42:44;26.20;48.10
28374;DHT22;15616;40.148;-102.718;2022-07-23T13:45:10;26.20;48.10
28374;DHT22;15616;40.148;-102.718;2022-07-23T13:47:36;26.20;48.10
28374;DHT22;15616;40.148;-102.718;2022-07-23T13:50:02;26.20;48.00
28374;DHT22;15616;40.148;-102.718;2022-07-23T13:52:28;26.20;48.00
28374;DHT22;15616;40.148;-102.718;2022-07-23T13:54:54;26.20;48.00
28374;DHT22;15616;40.148;-102.718;2022-07-23T13:57:20;26.20;48.00
28374;DHT22;15616;40.148;-102.718;2022-07-23T13:59:46;26.20;48.00
28374;DHT22;15616;40.148;-102.718;2022-07-23T14:02:15;26.20;48.00
28374;DHT22;15616;40.148;-102.718;2022-07-23T14:04:43;26.20;48.00
28374;DHT22;15616;40.148;-102.718;2022-07-23T14:07:09;26.20;48.00
28374;DHT22;15616;40.148;-102.718;2022-07-23T14:09:35;26.20;47.90
28374;DHT22;15616;40.148;-102.718;2022-07-23T14:12:01;26.20;47.80
28374;DHT22;15616;40.148;-102.718;2022-07-23T14:14:27;26.20;47.80
28374;DHT22;15616;40.148;-102.718;2022-07-23T14:16:55;26.20;47.80
28374;DHT22;15616;40.148;-102.718;2022-07-23T14:19:21;26.20;47.80
28374;DHT22;15616;40.148;-102.718;2022-07-23T14:21:47;26.20;47.90
28374;DHT22;15616;40.148;-102.718;2022-07-23T14:24:15;26.20;47.90
28374;DHT22;15616;40.148;-102.718;2022-07-23T14:26:41;26.20;47.90
28374;DHT22;15616;40.148;-102.718;2022-07-23T14:29:08;26.20;47.90
28374;DHT22;15616;40.148;-102.718;2022-07-23T14:31:34;26.20;47.90
28374;DHT22;15616;40.148;-102.718;2022-07-23T14:34:01;26.20;47.90
28374;DHT22;15616;40.148;-102.718;2022-07-23T14:36:27;26.20;47.80
28374;DHT22;15616;40.148;-102.718;2022-07-23T14:38:53;26.20;47.80
28374;DHT22;15616;40.148;-102.718;2022-07-23T14:41:19;26.30;47.80
28374;DHT22;15616;40.148;-102.718;2022-07-23T14:43:45;26.30;47.80
28374;DHT22;15616;40.148;-102.718;2022-07-23T14:46:12;26.30;47.70
28374;DHT22;15616;40.148;-102.718;2022-07-23T14:48:38;26.30;47.70
28374;DHT22;15616;40.148;-102.718;2022-07-23T14:51:04;26.40;47.70
28374;DHT22;15616;40.148;-102.718;2022-07-23T14:53:30;26.40;47.60
28374;DHT22;15616;40.148;-102.718;2022-07-23T14:55:56;26.40;47.60
28374;DHT22;15616;40.148;-102.718;2022-07-23T14:58:25;26.50;47.60
28374;DHT22;15616;40.148;-102.718;2022-07-23T15:00:51;26.50;47.50
28374;DHT22;15616;40.148;-102.718;2022-07-23T15:03:17;26.50;47.50
28374;DHT22;15616;40.148;-102.718;2022-07-23T15:05:43;26.40;47.50
28374;DHT22;15616;40.148;-102.718;2022-07-23T15:08:09;26.40;47.50
28374;DHT22;15616;40.148;-102.718;2022-07-23T15:10:35;26.40;47.50
28374;DHT22;15616;40.148;-102.718;2022-07-23T15:13:01;26.40;47.50
28374;DHT22;15616;40.148;-102.718;2022-07-23T15:15:27;26.40;47.50
28374;DHT22;15616;40.148;-102.718;2022-07-23T15:17:53;26.50;47.40
28374;DHT22;15616;40.148;-102.718;2022-07-23T15:20:19;26.60;47.30
28374;DHT22;15616;40.148;-102.718;2022-07-23T15:22:45;26.70;47.10
28374;DHT22;15616;40.148;-102.718;2022-07-23T15:25:13;26.70;47.00
28374;DHT22;15616;40.148;-102.718;2022-07-23T15:27:39;26.70;46.90
28374;DHT22;15616;40.148;-102.718;2022-07-23T15:30:08;26.70;46.90
28374;DHT22;15616;40.148;-102.718;2022-07-23T15:32:35;26.70;47.00
28374;DHT22;15616;40.148;-102.718;2022-07-23T15:35:01;26.70;47.00
28374;DHT22;15616;40.148;-102.718;2022-07-23T15:37:30;26.60;47.00
28374;DHT22;15616;40.148;-102.718;2022-07-23T15:39:56;26.60;47.00
28374;DHT22;15616;40.148;-102.718;2022-07-23T15:42:22;26.60;47.10
28374;DHT22;15616;40.148;-102.718;2022-07-23T15:44:48;26.50;47.10
28374;DHT22;15616;40.148;-102.718;2022-07-23T15:47:17;26.50;47.20
28374;DHT22;15616;40.148;-102.718;2022-07-23T15:49:43;26.50;47.20